Time;durP1;ratioP1;P1;durP2;ratioP2;P2;SDS_P1;SDS_P2;PMS_P1;PMS_P2;Temp;Humidity;BMP_temperature;BMP_pressure;BME280_temperature;BME280_humidity;BME280_pressure;Samples;Min_cycle;Max_cycle;Signal;HPM_P1;HPM_P2
2022/09/25 00:02:55;;;;;;;;;;;;;;;16.02;54.64;100261.97;5323965;32;33798;-67
2022/09/25 00:06:04;;;;;;;;;;;;;;;16.30;53.48;100262.88;5337731;32;33899;-74
2022/09/25 00:09:07;;;;;;;;;;;;;;;16.21;53.46;100257.19;5317944;32;33808;-74
2022/09/25 00:12:11;;;;;;;;;;;;;;;16.11;53.86;100258.75;5318526;32;34046;-75
2022/09/25 00:15:12;;;;;;;;;;;;;;;16.31;53.53;100257.44;5360188;32;33680;-67
2022/09/25 00:18:15;;;;;;;;;;;;;;;16.81;52.07;100257.72;5323509;32;34256;-74
2022/09/25 00:21:17;;;;;;;;;;;;;;;16.27;53.31;100244.47;5337157;32;33780;-66
2022/09/25 00:24:19;;;;;;;;;;;;;;;15.68;55.28;100250.00;5310040;32;33670;-66
2022/09/25 00:27:21;;;;;;;;;;;;;;;15.74;55.70;100248.75;5326006;32;32962;-66
2022/09/25 00:30:22;;;;;;;;;;;;;;;16.00;54.39;100247.97;5334871;32;45427;-66
2022/09/25 00:33:24;;;;;;;;;;;;;;;15.53;56.10;100237.69;5321368;32;35085;-66
2022/09/25 00:36:26;;;;;;;;;;;;;;;15.42;56.89;100248.91;5340930;32;33105;-75
2022/09/25 00:39:29;;;;;;;;;;;;;;;15.58;56.74;100238.22;5320901;32;33133;-74
2022/09/25 00:42:31;;;;;;;;;;;;;;;16.05;55.13;100237.91;5326637;32;34597;-66
2022/09/25 00:45:33;;;;;;;;;;;;;;;16.20;54.46;100246.69;5313547;32;33082;-66
2022/09/25 00:48:35;;;;;;;;;;;;;;;15.73;55.84;100241.75;5325454;32;34025;-74
2022/09/25 00:51:40;;;;;;;;;;;;;;;15.57;56.93;100234.72;5335501;32;34302;-73
2022/09/25 00:54:46;;;;;;;;;;;;;;;15.89;55.98;100235.38;5320186;32;32880;-66
2022/09/25 00:57:49;;;;;;;;;;;;;;;15.28;58.18;100238.31;5339504;32;33465;-74
2022/09/25 01:00:51;;;;;;;;;;;;;;;16.43;54.74;100231.94;5322453;32;35119;-76
2022/09/25 01:03:54;;;;;;;;;;;;;;;15.86;55.69;100232.09;5318986;32;45280;-66
2022/09/25 01:06:56;;;;;;;;;;;;;;;15.28;57.96;100225.09;5317214;32;33875;-74
2022/09/25 01:10:01;;;;;;;;;;;;;;;15.51;57.73;100236.91;5302475;32;33773;-74
2022/09/25 01:13:03;;;;;;;;;;;;;;;15.90;56.26;100225.62;5347184;32;34396;-74
2022/09/25 01:16:08;;;;;;;;;;;;;;;15.77;57.03;100235.31;5337566;32;33537;-67
2022/09/25 01:19:31;;;;;;;;;;;;;;;16.20;55.91;100238.72;5326450;32;33365;-75
2022/09/25 01:22:51;;;;;;;;;;;;;;;16.14;56.04;100237.31;5306986;32;33131;-75
2022/09/25 01:26:12;;;;;;;;;;;;;;;15.77;57.49;100230.00;5316013;32;44631;-66
2022/09/25 01:29:16;;;;;;;;;;;;;;;16.30;56.18;100231.88;5340775;32;33625;-73
2022/09/25 01:32:30;;;;;;;;;;;;;;;16.11;56.77;100232.22;5321849;32;34009;-75
2022/09/25 01:35:36;;;;;;;;;;;;;;;15.82;57.76;100241.16;5337744;32;33666;-75
2022/09/25 01:38:46;;;;;;;;;;;;;;;15.19;60.35;100242.34;5322135;32;33099;-66
2022/09/25 01:41:58;;;;;;;;;;;;;;;15.88;58.35;100224.88;5322396;32;33919;-66
2022/09/25 01:45:04;;;;;;;;;;;;;;;15.72;58.82;100234.75;5310393;32;46245;-74
2022/09/25 01:48:06;;;;;;;;;;;;;;;16.48;56.63;100227.16;5323648;32;33807;-74
2022/09/25 01:51:09;;;;;;;;;;;;;;;15.90;57.98;100218.53;5339464;32;33489;-67
2022/09/25 01:54:14;;;;;;;;;;;;;;;16.30;57.13;100229.22;5328114;32;32879;-74
2022/09/25 01:57:24;;;;;;;;;;;;;;;16.87;55.19;100230.78;5333401;32;34160;-66
2022/09/25 02:00:26;;;;;;;;;;;;;;;16.49;55.92;100226.22;5335395;32;45258;-66
2022/09/25 02:03:32;;;;;;;;;;;;;;;15.86;57.62;100219.69;5322262;32;34213;-66
2022/09/25 02:06:34;;;;;;;;;;;;;;;15.99;57.51;100222.41;5330915;32;32962;-74
2022/09/25 02:09:38;;;;;;;;;;;;;;;14.96;60.91;100219.94;5305213;32;34264;-67
2022/09/25 02:12:42;;;;;;;;;;;;;;;15.35;60.48;100210.53;5341278;32;33359;-67
2022/09/25 02:15:49;;;;;;;;;;;;;;;16.33;57.58;100212.25;5341457;32;33681;-66
2022/09/25 02:22:14;;;;;;;;;;;;;;;15.41;59.35;100218.94;5332541;32;33080;-67
2022/09/25 02:25:18;;;;;;;;;;;;;;;14.96;61.69;100225.22;5313252;32;34219;-65
2022/09/25 02:28:21;;;;;;;;;;;;;;;15.16;60.60;100229.31;5339537;32;33789;-66
2022/09/25 02:31:28;;;;;;;;;;;;;;;14.85;62.17;100228.50;5321969;32;44766;-74
2022/09/25 02:34:30;;;;;;;;;;;;;;;15.26;61.03;100219.00;5330655;32;33104;-72
2022/09/25 02:37:32;;;;;;;;;;;;;;;15.88;59.25;100224.88;5322521;32;33957;-75
2022/09/25 02:40:53;;;;;;;;;;;;;;;16.14;58.13;100231.16;5323566;32;32640;-66
2022/09/25 02:44:14;;;;;;;;;;;;;;;15.89;58.66;100218.62;5318257;32;47102;-66
2022/09/25 02:47:34;;;;;;;;;;;;;;;16.21;57.87;100229.81;5325562;32;33709;-67
2022/09/25 02:50:55;;;;;;;;;;;;;;;15.78;59.42;100229.06;5325724;32;33082;-66
2022/09/25 02:54:07;;;;;;;;;;;;;;;15.27;60.81;100231.34;5341410;32;44630;-75
2022/09/25 02:57:19;;;;;;;;;;;;;;;14.74;63.31;100230.94;5309573;32;32920;-73
2022/09/25 03:00:22;;;;;;;;;;;;;;;15.01;62.67;100231.09;5340384;32;33656;-73
2022/09/25 03:03:24;;;;;;;;;;;;;;;14.30;65.53;100212.34;5317986;32;45155;-74
2022/09/25 03:06:26;;;;;;;;;;;;;;;14.07;66.68;100213.63;5312904;32;33415;-67
2022/09/25 03:09:28;;;;;;;;;;;;;;;14.55;65.01;100209.13;5318045;32;34340;-66
2022/09/25 03:12:34;;;;;;;;;;;;;;;15.59;60.97;100211.66;5304845;32;33715;-71
2022/09/25 03:15:36;;;;;;;;;;;;;;;15.52;60.65;100204.16;5340029;32;33839;-66
2022/09/25 03:18:38;;;;;;;;;;;;;;;15.75;60.20;100203.59;5310544;32;33063;-67
2022/09/25 03:21:40;;;;;;;;;;;;;;;15.74;60.15;100196.63;5345903;32;32834;-66
2022/09/25 03:24:42;;;;;;;;;;;;;;;15.43;61.15;100189.69;5329466;32;33650;-66
2022/09/25 03:27:45;;;;;;;;;;;;;;;15.54;61.21;100199.63;5338070;32;33729;-67
2022/09/25 03:31:06;;;;;;;;;;;;;;;15.14;62.09;100192.38;5338880;32;32949;-75
2022/09/25 03:34:08;;;;;;;;;;;;;;;14.62;64.67;100194.66;5323901;32;34043;-75
2022/09/25 03:37:10;;;;;;;;;;;;;;;15.23;62.36;100198.03;5340168;32;33393;-66
2022/09/25 03:40:12;;;;;;;;;;;;;;;15.34;61.96;100198.22;5325990;32;33438;-66
2022/09/25 03:43:14;;;;;;;;;;;;;;;15.37;61.66;100196.22;5315392;32;33699;-76
2022/09/25 03:46:17;;;;;;;;;;;;;;;15.42;61.50;100194.16;5327020;32;33837;-75
2022/09/25 03:49:19;;;;;;;;;;;;;;;14.29;65.55;100197.38;5321849;32;33608;-75
2022/09/25 03:52:21;;;;;;;;;;;;;;;14.86;64.42;100195.81;5341110;32;34682;-75
2022/09/25 03:55:24;;;;;;;;;;;;;;;15.52;61.50;100206.81;5323941;32;44522;-66
2022/09/25 03:58:26;;;;;;;;;;;;;;;15.72;60.11;100222.38;5340774;32;33895;-66
2022/09/25 04:01:28;;;;;;;;;;;;;;;15.29;61.36;100232.94;5323701;32;33453;-76
2022/09/25 04:04:31;;;;;;;;;;;;;;;14.23;65.60;100232.09;5331292;32;34232;-71
2022/09/25 04:07:33;;;;;;;;;;;;;;;14.35;65.56;100228.75;5310090;33;33750;-65
2022/09/25 04:10:37;;;;;;;;;;;;;;;14.10;66.68;100234.59;5304711;32;34372;-73
2022/09/25 04:13:43;;;;;;;;;;;;;;;14.46;65.63;100223.75;5322181;32;33639;-72
2022/09/25 04:16:45;;;;;;;;;;;;;;;14.56;65.50;100221.44;5317382;32;32931;-75
2022/09/25 04:19:48;;;;;;;;;;;;;;;14.31;66.19;100221.97;5330840;32;34601;-74
2022/09/25 04:22:49;;;;;;;;;;;;;;;15.22;62.67;100212.22;5336175;32;33063;-73
2022/09/25 04:25:52;;;;;;;;;;;;;;;15.45;61.18;100217.78;5343050;32;34285;-66
2022/09/25 04:28:54;;;;;;;;;;;;;;;15.62;60.16;100202.69;5338503;32;45509;-75
2022/09/25 04:35:16;;;;;;;;;;;;;;;14.56;64.32;100217.00;5339571;32;33773;-66
2022/09/25 04:38:21;;;;;;;;;;;;;;;15.01;62.90;100222.31;5322239;32;34104;-73
2022/09/25 04:41:23;;;;;;;;;;;;;;;14.40;65.36;100213.50;5336321;32;44694;-74
2022/09/25 04:44:25;;;;;;;;;;;;;;;13.83;67.61;100210.56;5303455;32;33157;-66
2022/09/25 04:47:30;;;;;;;;;;;;;;;13.86;67.72;100199.00;5323934;32;32889;-66
2022/09/25 04:50:32;;;;;;;;;;;;;;;13.90;67.79;100211.91;5337609;32;33684;-75
2022/09/25 04:53:34;;;;;;;;;;;;;;;13.58;68.96;100204.91;5323206;32;33614;-75
2022/09/25 04:56:36;;;;;;;;;;;;;;;13.92;67.07;100203.94;5338020;32;32883;-66
2022/09/25 04:59:38;;;;;;;;;;;;;;;14.14;66.65;100203.56;5324307;32;34112;-73
2022/09/25 05:02:40;;;;;;;;;;;;;;;14.48;65.46;100210.44;5326052;32;33728;-74
2022/09/25 05:05:42;;;;;;;;;;;;;;;14.85;63.54;100211.78;5325032;32;32818;-74
2022/09/25 05:08:46;;;;;;;;;;;;;;;15.64;60.49;100219.31;5304878;32;33385;-66
2022/09/25 05:11:48;;;;;;;;;;;;;;;15.43;60.61;100224.97;5328975;32;33935;-75
2022/09/25 05:14:49;;;;;;;;;;;;;;;15.23;61.59;100225.34;5324023;32;33157;-75
2022/09/25 05:17:58;;;;;;;;;;;;;;;14.68;63.84;100225.12;5315437;33;33430;-66
2022/09/25 05:21:02;;;;;;;;;;;;;;;13.91;66.98;100224.22;5319218;32;44927;-66
2022/09/25 05:24:04;;;;;;;;;;;;;;;14.38;64.74;100217.19;5315636;32;33515;-67
2022/09/25 05:27:06;;;;;;;;;;;;;;;14.49;63.87;100212.12;5334217;32;34434;-73
2022/09/25 05:30:10;;;;;;;;;;;;;;;14.29;64.43;100218.53;5324109;32;33149;-74
2022/09/25 05:33:11;;;;;;;;;;;;;;;14.57;63.47;100221.34;5341976;32;32937;-74
2022/09/25 05:36:13;;;;;;;;;;;;;;;15.40;60.82;100214.59;5323008;32;32945;-73
2022/09/25 05:39:15;;;;;;;;;;;;;;;15.14;60.52;100218.84;5339747;32;34502;-66
2022/09/25 05:42:18;;;;;;;;;;;;;;;14.70;62.03;100210.06;5317160;32;33518;-65
2022/09/25 05:45:20;;;;;;;;;;;;;;;15.27;60.36;100215.44;5317246;32;34104;-65
2022/09/25 05:48:22;;;;;;;;;;;;;;;15.57;58.58;100221.47;5333759;32;43302;-75
2022/09/25 05:51:24;;;;;;;;;;;;;;;14.89;60.83;100226.53;5326333;32;35630;-73
2022/09/25 05:54:26;;;;;;;;;;;;;;;14.81;61.04;100232.28;5339960;32;32835;-66
2022/09/25 05:57:31;;;;;;;;;;;;;;;14.72;62.36;100230.16;5325325;32;34374;-66
2022/09/25 06:00:33;;;;;;;;;;;;;;;15.44;59.38;100228.47;5339672;32;34050;-75
2022/09/25 06:03:35;;;;;;;;;;;;;;;16.00;57.31;100228.56;5316416;32;33884;-75
2022/09/25 06:06:37;;;;;;;;;;;;;;;15.62;58.14;100232.66;5324485;32;32827;-73
2022/09/25 06:09:38;;;;;;;;;;;;;;;15.08;59.94;100240.37;5319899;32;33619;-75
2022/09/25 06:12:40;;;;;;;;;;;;;;;16.02;57.46;100229.28;5318363;32;32829;-68
2022/09/25 06:15:42;;;;;;;;;;;;;;;16.51;55.68;100243.72;5340167;32;33061;-65
2022/09/25 06:18:45;;;;;;;;;;;;;;;15.96;57.18;100254.41;5297302;32;33866;-74
2022/09/25 06:21:47;;;;;;;;;;;;;;;15.45;58.59;100254.00;5334953;32;34060;-67
2022/09/25 06:24:49;;;;;;;;;;;;;;;15.02;61.06;100251.34;5297300;32;33669;-72
2022/09/25 06:27:54;;;;;;;;;;;;;;;14.65;62.26;100252.62;5325062;32;34017;-75
2022/09/25 06:30:58;;;;;;;;;;;;;;;14.95;61.74;100251.78;5311119;33;45241;-74
2022/09/25 06:34:00;;;;;;;;;;;;;;;15.50;59.37;100251.09;5310149;32;33659;-74
2022/09/25 06:37:02;;;;;;;;;;;;;;;15.57;58.85;100255.06;5341389;32;32983;-73
2022/09/25 06:40:04;;;;;;;;;;;;;;;14.81;60.90;100257.87;5325230;32;33624;-74
2022/09/25 06:43:08;;;;;;;;;;;;;;;15.24;60.45;100257.97;5322628;32;32753;-74
2022/09/25 06:46:10;;;;;;;;;;;;;;;15.67;59.28;100248.28;5321387;32;33210;-66
2022/09/25 06:49:12;;;;;;;;;;;;;;;16.17;57.65;100253.03;5323094;32;32857;-74
2022/09/25 06:52:14;;;;;;;;;;;;;;;15.85;57.92;100257.75;5341605;32;33809;-75
2022/09/25 06:55:16;;;;;;;;;;;;;;;15.30;60.22;100260.25;5322116;32;33605;-66
2022/09/25 06:58:21;;;;;;;;;;;;;;;15.26;60.52;100254.28;5339988;32;33370;-67
2022/09/25 07:01:23;;;;;;;;;;;;;;;15.74;58.74;100256.72;5324139;32;46137;-74
2022/09/25 07:04:25;;;;;;;;;;;;;;;15.60;59.93;100268.97;5331605;32;33449;-66
2022/09/25 07:07:27;;;;;;;;;;;;;;;15.45;59.90;100270.75;5326607;32;33748;-74
2022/09/25 07:10:29;;;;;;;;;;;;;;;15.45;60.20;100267.25;5310544;32;33719;-67
2022/09/25 07:13:33;;;;;;;;;;;;;;;16.39;57.15;100263.09;5325646;32;34328;-67
2022/09/25 07:16:35;;;;;;;;;;;;;;;15.85;57.99;100262.19;5318557;32;33015;-67
2022/09/25 07:19:37;;;;;;;;;;;;;;;15.27;60.28;100268.41;5337704;32;33448;-75
2022/09/25 07:22:39;;;;;;;;;;;;;;;16.72;56.18;100260.06;5328936;32;32987;-74
2022/09/25 07:25:42;;;;;;;;;;;;;;;15.52;59.58;100255.38;5332843;32;33220;-74
2022/09/25 07:28:44;;;;;;;;;;;;;;;15.64;58.95;100243.16;5325583;32;33661;-73
2022/09/25 07:31:46;;;;;;;;;;;;;;;15.95;58.33;100244.75;5323982;32;33165;-76
2022/09/25 07:34:50;;;;;;;;;;;;;;;15.93;58.76;100249.31;5337615;32;33958;-66
2022/09/25 07:37:54;;;;;;;;;;;;;;;16.60;56.39;100252.88;5325089;32;45487;-74
2022/09/25 07:40:56;;;;;;;;;;;;;;;16.58;56.68;100248.62;5340313;32;34409;-76
2022/09/25 07:43:58;;;;;;;;;;;;;;;16.41;57.20;100258.53;5300811;32;33520;-75
2022/09/25 07:47:20;;;;;;;;;;;;;;;16.55;57.14;100246.16;5325206;32;34251;-68
2022/09/25 07:50:22;;;;;;;;;;;;;;;17.46;54.66;100234.66;5336568;32;43869;-73
2022/09/25 07:53:24;;;;;;;;;;;;;;;16.41;57.46;100231.16;5322997;32;33545;-76
2022/09/25 07:56:26;;;;;;;;;;;;;;;16.14;58.23;100225.88;5340515;32;33350;-66
2022/09/25 07:59:28;;;;;;;;;;;;;;;17.81;53.25;100213.56;5323030;32;33722;-75
2022/09/25 08:02:30;;;;;;;;;;;;;;;17.78;53.17;100211.16;5339901;32;34038;-66
2022/09/25 08:05:32;;;;;;;;;;;;;;;18.77;50.34;100202.94;5324573;32;33897;-66
2022/09/25 08:08:34;;;;;;;;;;;;;;;17.41;54.57;100220.84;5309057;32;33192;-75
2022/09/25 08:11:35;;;;;;;;;;;;;;;18.04;52.68;100214.56;5325718;32;33718;-67
2022/09/25 08:14:37;;;;;;;;;;;;;;;18.93;49.83;100214.16;5323003;32;33038;-75
2022/09/25 08:17:39;;;;;;;;;;;;;;;18.76;50.69;100213.72;5325777;32;33161;-74
2022/09/25 08:20:41;;;;;;;;;;;;;;;19.23;49.14;100210.06;5322659;32;33686;-72
2022/09/25 08:23:44;;;;;;;;;;;;;;;18.52;50.88;100216.37;5306334;32;33090;-66
2022/09/25 08:26:49;;;;;;;;;;;;;;;17.81;53.11;100226.84;5319999;32;33183;-66
2022/09/25 08:29:50;;;;;;;;;;;;;;;18.92;50.50;100227.56;5324734;32;34553;-76
2022/09/25 08:32:52;;;;;;;;;;;;;;;18.25;53.07;100236.09;5338778;32;44502;-67
2022/09/25 08:35:55;;;;;;;;;;;;;;;19.51;48.71;100224.72;5324367;32;32588;-73
2022/09/25 08:38:59;;;;;;;;;;;;;;;18.14;51.70;100230.69;5337105;32;33803;-67
2022/09/25 08:42:01;;;;;;;;;;;;;;;18.20;52.04;100224.94;5317379;32;34218;-67
2022/09/25 08:51:52;;;;;;;;;;;;;;;18.56;50.50;100216.03;5322307;32;43962;-67
2022/09/25 08:54:54;;;;;;;;;;;;;;;19.37;48.61;100212.50;5326016;32;32412;-68
2022/09/25 08:57:56;;;;;;;;;;;;;;;19.43;47.74;100211.16;5324148;32;33421;-76
2022/09/25 09:01:03;;;;;;;;;;;;;;;18.73;50.22;100219.25;5337267;32;33611;-66
2022/09/25 09:04:08;;;;;;;;;;;;;;;18.69;49.52;100216.00;5315131;32;33757;-68
2022/09/25 09:07:11;;;;;;;;;;;;;;;18.68;50.53;100219.63;5314713;32;33031;-73
2022/09/25 09:10:29;;;;;;;;;;;;;;;19.83;47.09;100218.69;5325869;32;44613;-67
2022/09/25 09:13:35;;;;;;;;;;;;;;;19.92;46.87;100205.47;5340829;32;33621;-74
2022/09/25 09:16:44;;;;;;;;;;;;;;;18.96;49.17;100220.19;5350446;32;33061;-67
2022/09/25 09:19:54;;;;;;;;;;;;;;;18.03;52.14;100225.31;5324301;32;33620;-76
2022/09/25 09:22:55;;;;;;;;;;;;;;;19.38;48.44;100227.50;5308254;32;44675;-67
2022/09/25 09:26:02;;;;;;;;;;;;;;;18.77;50.58;100232.25;5330801;32;34024;-74
2022/09/25 09:29:10;;;;;;;;;;;;;;;18.89;49.80;100227.81;5317852;32;33963;-73
2022/09/25 09:32:18;;;;;;;;;;;;;;;19.30;48.57;100221.09;5338769;32;33614;-75
2022/09/25 09:35:22;;;;;;;;;;;;;;;18.65;50.11;100223.31;5323418;32;33709;-75
2022/09/25 09:38:25;;;;;;;;;;;;;;;19.03;49.92;100230.25;5330525;32;46343;-67
2022/09/25 09:41:32;;;;;;;;;;;;;;;18.87;50.61;100233.25;5331702;32;33995;-74
2022/09/25 09:44:34;;;;;;;;;;;;;;;18.78;50.80;100228.59;5298541;32;33061;-67
2022/09/25 09:47:47;;;;;;;;;;;;;;;19.63;48.65;100226.47;5337852;32;33475;-73
2022/09/25 09:50:52;;;;;;;;;;;;;;;19.31;49.27;100223.63;5323334;32;34234;-67
2022/09/25 09:53:59;;;;;;;;;;;;;;;19.41;48.78;100219.28;5336683;32;47023;-75
2022/09/25 09:57:03;;;;;;;;;;;;;;;19.08;49.54;100217.44;5308558;32;33597;-73
2022/09/25 10:00:06;;;;;;;;;;;;;;;18.11;52.04;100213.16;5320318;32;33045;-67
2022/09/25 10:03:24;;;;;;;;;;;;;;;19.14;47.69;100210.78;5337888;32;33756;-67
2022/09/25 10:06:27;;;;;;;;;;;;;;;18.97;49.31;100208.56;5316307;32;44693;-67
2022/09/25 10:09:28;;;;;;;;;;;;;;;19.10;49.09;100212.81;5335482;32;33075;-67
2022/09/25 10:12:31;;;;;;;;;;;;;;;18.88;50.52;100216.31;5314800;32;33502;-75
2022/09/25 10:16:02;;;;;;;;;;;;;;;17.84;54.38;100213.37;5349707;32;32843;-75
2022/09/25 10:19:14;;;;;;;;;;;;;;;18.19;54.36;100212.59;5331641;32;34087;-67
2022/09/25 10:22:17;;;;;;;;;;;;;;;17.69;56.03;100218.88;5320646;32;34453;-66
2022/09/25 10:25:33;;;;;;;;;;;;;;;18.16;54.13;100210.16;5347582;32;33644;-66
2022/09/25 10:28:35;;;;;;;;;;;;;;;18.75;52.57;100212.03;5330486;32;32850;-67
2022/09/25 10:31:38;;;;;;;;;;;;;;;19.05;52.11;100220.31;5330254;32;32903;-73
2022/09/25 10:34:40;;;;;;;;;;;;;;;19.28;51.14;100221.22;5337144;32;33002;-66
2022/09/25 10:37:42;;;;;;;;;;;;;;;18.73;53.12;100220.13;5322684;32;33077;-75
2022/09/25 10:40:46;;;;;;;;;;;;;;;18.69;53.82;100216.00;5339202;32;33061;-67
2022/09/25 10:44:01;;;;;;;;;;;;;;;17.60;57.82;100215.06;5301712;32;34236;-77
2022/09/25 10:50:38;;;;;;;;;;;;;;;18.43;55.45;100209.09;5338619;32;32992;-67
2022/09/25 10:53:40;;;;;;;;;;;;;;;18.90;54.13;100203.72;5324331;32;33567;-74
2022/09/25 10:56:42;;;;;;;;;;;;;;;18.73;54.35;100196.16;5340460;32;33593;-68
2022/09/25 10:59:47;;;;;;;;;;;;;;;18.13;56.58;100197.09;5325945;32;34599;-75
2022/09/25 11:02:52;;;;;;;;;;;;;;;17.92;56.38;100188.88;5338742;32;32517;-75
2022/09/25 11:05:56;;;;;;;;;;;;;;;17.98;57.47;100192.91;5320340;32;45001;-66
2022/09/25 11:09:02;;;;;;;;;;;;;;;18.06;58.00;100187.88;5306827;32;33834;-76
2022/09/25 11:12:18;;;;;;;;;;;;;;;17.98;59.36;100172.47;5330280;32;34053;-66
2022/09/25 11:15:22;;;;;;;;;;;;;;;18.37;57.70;100171.34;5324128;32;34283;-67
2022/09/25 11:18:37;;;;;;;;;;;;;;;18.92;54.80;100167.16;5324679;32;44739;-76
2022/09/25 11:21:43;;;;;;;;;;;;;;;18.50;56.30;100183.72;5333744;32;32977;-67
2022/09/25 11:24:48;;;;;;;;;;;;;;;18.51;56.95;100180.09;5322447;32;34144;-69
2022/09/25 11:27:53;;;;;;;;;;;;;;;17.82;58.76;100180.72;5337507;32;33179;-77
2022/09/25 11:31:08;;;;;;;;;;;;;;;18.70;55.73;100185.75;5308460;32;44494;-67
2022/09/25 11:34:23;;;;;;;;;;;;;;;19.18;53.52;100170.44;5324427;32;33097;-68
2022/09/25 11:37:33;;;;;;;;;;;;;;;18.88;55.01;100180.84;5310345;32;45999;-76
2022/09/25 11:44:04;;;;;;;;;;;;;;;19.18;53.78;100174.94;5315310;32;45313;-69
2022/09/25 11:47:15;;;;;;;;;;;;;;;18.23;56.94;100178.66;5322111;32;33794;-69
2022/09/25 11:50:17;;;;;;;;;;;;;;;18.28;57.77;100179.13;5341207;32;33936;-68
2022/09/25 11:53:23;;;;;;;;;;;;;;;18.25;57.79;100182.03;5322776;32;34316;-69
2022/09/25 11:56:28;;;;;;;;;;;;;;;18.89;55.09;100179.87;5328279;32;45586;-67
2022/09/25 11:59:37;;;;;;;;;;;;;;;18.74;56.05;100181.03;5338481;32;33957;-67
2022/09/25 12:02:51;;;;;;;;;;;;;;;18.75;55.45;100175.59;5325036;32;35287;-74
2022/09/25 12:05:59;;;;;;;;;;;;;;;18.62;56.47;100174.81;5336312;32;44484;-75
2022/09/25 12:09:10;;;;;;;;;;;;;;;19.00;54.39;100165.72;5306510;32;32998;-67
2022/09/25 12:12:31;;;;;;;;;;;;;;;18.32;57.55;100168.16;5309565;33;32900;-74
2022/09/25 12:15:45;;;;;;;;;;;;;;;19.02;55.11;100166.47;5334603;32;33193;-67
2022/09/25 12:18:54;;;;;;;;;;;;;;;17.82;59.95;100175.38;5310742;32;33341;-76
2022/09/25 12:22:02;;;;;;;;;;;;;;;17.46;61.83;100175.34;5335387;32;46406;-77
2022/09/25 12:25:08;;;;;;;;;;;;;;;17.81;61.54;100157.75;5316709;32;33501;-67
2022/09/25 12:28:15;;;;;;;;;;;;;;;17.67;61.19;100173.81;5326548;32;33804;-74
2022/09/25 12:31:22;;;;;;;;;;;;;;;17.92;60.69;100166.75;5335953;32;34277;-68
2022/09/25 12:34:36;;;;;;;;;;;;;;;17.38;61.91;100167.91;5324065;32;47648;-69
2022/09/25 12:37:42;;;;;;;;;;;;;;;17.60;61.84;100156.63;5339465;32;33698;-74
2022/09/25 12:40:45;;;;;;;;;;;;;;;18.53;58.47;100171.00;5322151;32;32844;-67
2022/09/25 12:43:50;;;;;;;;;;;;;;;18.45;57.59;100160.09;5314504;32;33008;-77
2022/09/25 12:46:58;;;;;;;;;;;;;;;18.09;59.80;100155.72;5326571;32;43668;-69
2022/09/25 12:50:00;;;;;;;;;;;;;;;17.58;62.23;100163.81;5323797;32;34398;-75
2022/09/25 12:53:09;;;;;;;;;;;;;;;18.51;59.15;100158.81;5339948;32;33575;-67
2022/09/25 12:56:23;;;;;;;;;;;;;;;18.67;59.91;100157.53;5322787;32;34033;-77
2022/09/25 12:59:27;;;;;;;;;;;;;;;17.72;65.14;100152.25;5337274;32;45656;-77
2022/09/25 13:02:35;;;;;;;;;;;;;;;17.77;65.45;100156.25;5323219;32;32605;-78
2022/09/25 13:05:51;;;;;;;;;;;;;;;18.12;64.45;100158.16;5321661;32;34441;-75
2022/09/25 13:09:12;;;;;;;;;;;;;;;18.51;62.80;100154.31;5321537;32;44831;-77
2022/09/25 13:12:33;;;;;;;;;;;;;;;18.88;61.56;100148.87;5314731;32;33466;-67
2022/09/25 13:15:36;;;;;;;;;;;;;;;18.03;65.72;100145.53;5334266;32;33850;-74
2022/09/25 13:18:38;;;;;;;;;;;;;;;17.66;70.30;100144.69;5313683;32;34681;-75
2022/09/25 13:21:41;;;;;;;;;;;;;;;16.89;73.73;100151.91;5333797;32;33697;-68
2022/09/25 13:24:46;;;;;;;;;;;;;;;16.98;74.51;100148.59;5334385;32;33622;-71
2022/09/25 13:27:49;;;;;;;;;;;;;;;17.37;74.08;100152.94;5320898;32;34279;-68
2022/09/25 13:30:55;;;;;;;;;;;;;;;17.51;72.69;100151.94;5322656;32;33001;-69
2022/09/25 13:34:02;;;;;;;;;;;;;;;18.69;65.91;100151.28;5292742;32;46068;-75
2022/09/25 13:37:04;;;;;;;;;;;;;;;18.21;67.13;100146.81;5330312;32;33185;-73
2022/09/25 13:43:40;;;;;;;;;;;;;;;16.88;75.02;100142.25;5303831;32;33673;-74
2022/09/25 13:46:42;;;;;;;;;;;;;;;18.35;67.24;100143.13;5340046;32;33297;-67
2022/09/25 13:49:51;;;;;;;;;;;;;;;18.36;66.66;100143.03;5325944;32;33531;-73
2022/09/25 13:53:19;;;;;;;;;;;;;;;18.19;67.21;100148.75;5331951;32;46660;-66
2022/09/25 13:56:21;;;;;;;;;;;;;;;16.82;74.64;100151.50;5339853;32;33417;-75
2022/09/25 13:59:43;;;;;;;;;;;;;;;17.83;70.52;100139.00;5322568;32;47112;-74
2022/09/25 14:02:46;;;;;;;;;;;;;;;17.87;69.31;100141.34;5341487;32;33153;-75
2022/09/25 14:05:48;;;;;;;;;;;;;;;17.63;71.02;100139.59;5325667;32;33780;-74
2022/09/25 14:08:51;;;;;;;;;;;;;;;17.58;70.87;100147.88;5334545;32;34819;-74
2022/09/25 14:12:01;;;;;;;;;;;;;;;17.05;73.79;100133.94;5333098;32;46877;-74
2022/09/25 14:15:06;;;;;;;;;;;;;;;15.95;82.54;100146.69;5326365;32;33424;-75
2022/09/25 14:18:09;;;;;;;;;;;;;;;16.82;76.08;100137.38;5325476;32;33161;-66
2022/09/25 14:21:14;;;;;;;;;;;;;;;16.51;77.33;100139.41;5317168;32;32507;-67
2022/09/25 14:24:20;;;;;;;;;;;;;;;16.36;78.50;100143.09;5324910;32;33307;-75
2022/09/25 14:27:24;;;;;;;;;;;;;;;16.33;78.68;100138.00;5323142;32;41372;-66
2022/09/25 14:30:28;;;;;;;;;;;;;;;16.59;77.71;100145.06;5325423;32;34334;-66
2022/09/25 14:33:50;;;;;;;;;;;;;;;16.18;79.12;100143.38;5341218;32;33467;-75
2022/09/25 14:37:11;;;;;;;;;;;;;;;16.18;78.91;100138.06;5323095;32;43810;-75
2022/09/25 14:40:19;;;;;;;;;;;;;;;16.36;78.74;100135.13;5339171;32;33287;-66
2022/09/25 14:43:26;;;;;;;;;;;;;;;16.19;79.80;100134.47;5308486;32;34287;-66
2022/09/25 14:46:28;;;;;;;;;;;;;;;16.14;84.39;100139.22;5319141;32;45604;-76
2022/09/25 14:49:32;;;;;;;;;;;;;;;15.55;85.80;100127.16;5338300;32;34279;-67
2022/09/25 14:52:34;;;;;;;;;;;;;;;17.00;75.93;100113.06;5324995;32;32791;-74
2022/09/25 14:55:38;;;;;;;;;;;;;;;16.62;76.21;100112.16;5339145;32;33416;-65
2022/09/25 14:58:43;;;;;;;;;;;;;;;17.10;74.20;100105.28;5323155;32;34053;-67
2022/09/25 15:01:46;;;;;;;;;;;;;;;16.61;77.73;100115.75;5319547;32;32980;-76
2022/09/25 15:04:48;;;;;;;;;;;;;;;17.11;75.88;100114.94;5312128;32;33094;-76
2022/09/25 15:07:50;;;;;;;;;;;;;;;17.68;71.82;100114.38;5299579;33;34263;-75
2022/09/25 15:11:02;;;;;;;;;;;;;;;17.21;74.80;100110.69;5322947;32;34988;-68
2022/09/25 15:14:11;;;;;;;;;;;;;;;17.22;73.99;100111.53;5321150;32;33394;-67
2022/09/25 15:17:22;;;;;;;;;;;;;;;17.56;72.78;100107.28;5329694;32;33413;-74
2022/09/25 15:20:28;;;;;;;;;;;;;;;17.36;73.90;100106.06;5316928;32;45196;-74
2022/09/25 15:23:30;;;;;;;;;;;;;;;17.44;72.74;100113.50;5308048;32;34213;-69
2022/09/25 15:26:38;;;;;;;;;;;;;;;17.41;72.18;100114.56;5353698;32;33804;-72
2022/09/25 15:29:40;;;;;;;;;;;;;;;17.08;74.05;100107.19;5330927;32;33013;-74
2022/09/25 15:32:42;;;;;;;;;;;;;;;16.20;80.41;100119.41;5358570;32;33527;-66
2022/09/25 15:35:52;;;;;;;;;;;;;;;16.50;79.58;100097.94;5340846;32;34603;-74
2022/09/25 15:38:54;;;;;;;;;;;;;;;15.85;83.62;100112.00;5348909;32;46376;-75
2022/09/25 15:41:56;;;;;;;;;;;;;;;15.91;81.84;100101.00;5346172;32;34574;-67
2022/09/25 15:44:58;;;;;;;;;;;;;;;16.95;77.81;100098.41;5323852;32;33342;-67
2022/09/25 15:48:00;;;;;;;;;;;;;;;16.18;79.98;100105.41;5358249;32;33352;-73
2022/09/25 15:51:05;;;;;;;;;;;;;;;16.05;80.68;100108.03;5340622;32;33636;-75
2022/09/25 15:54:27;;;;;;;;;;;;;;;16.87;77.89;100095.41;5359300;32;32797;-67
2022/09/25 15:57:29;;;;;;;;;;;;;;;16.86;77.44;100099.03;5342992;32;45054;-67
2022/09/25 16:07:26;;;;;;;;;;;;;;;16.31;79.29;100087.72;5314279;32;33734;-72
2022/09/25 16:10:29;;;;;;;;;;;;;;;16.72;77.00;100078.75;5316563;32;44697;-66
2022/09/25 16:13:31;;;;;;;;;;;;;;;16.51;78.38;100081.06;5325897;32;34236;-66
2022/09/25 16:16:33;;;;;;;;;;;;;;;16.40;80.28;100088.88;5319334;32;34079;-73
2022/09/25 16:19:35;;;;;;;;;;;;;;;16.79;76.00;100075.56;5329736;32;33723;-66
2022/09/25 16:22:39;;;;;;;;;;;;;;;17.04;75.04;100079.16;5311626;32;33163;-64